Strona główna
METAR-TAF:

METAR-TAF

Lotnisko :

Port lotniczy Haugesund

Haugesund, Norwegia

Szerokość geograficzna: 59-21N, Długość geograficzna: 005-13E, wysokość: 2 m

Aktualna obserwacja pogody

Raport powstał 42 minut temu, godzina 13:50 UTC
Wiatr 5 kt od południowy zachód, zmienny między południowo-południowy zachód i północny zachód
Temperatura 16°C
Wilgotność 72%
Ciśnienie 1012 hPa
Widzialność 10 km lub więcej
Brak chmur poniżej 1500 m i brak chmur cumulonimbus

METAR: ENHD 171350Z 23005KT 210V310 CAVOK 16/11 Q1012

czas: 16:32 (14:32 UTC)

Prognoza

Raport powstał 3 godziny i 32 minut temu, godzina 11:00 UTC
Prognoza ważna od 17 godzina 12 UTC do 17 godzina 21 UTC
Wiatr 7 kt od zachód
Widzialność 10 km lub więcej
Mało chmury na wysokości 1000 ft
Stopniowe zmiany
od 17 godzina 17 UTC do 17 godzina 19 UTC
Wiatr 12 kt od południe
Prawdopodobieństwo 40%
od 17 godzina 19 UTC do 17 godzina 21 UTC
Przerywane chmury na wysokości 900 ft

TAF: ENHD 171100Z 1712/1721 26007KT 9999 FEW010 BECMG 1717/1719 18012KT PROB40 1719/1721 BKN009

Obserwacja i prognoza pogody dla ponad 4000 lotnisk (raport METAR i TAF).

Dostępne stacje oznaczono żółtymi i czerwonymi punktami na mapie.

Najedź kursorem aby zobaczyć nazwę stacji.

Kliknij aby zobaczyć obserwacje i prognozy pogody.

Aby zmienić mapę: kliknij na zielony przycisk z czarnym krzyżykiem, aby powiększyć; na zielony przycisk z myślnikiem, aby pomniejszyć; na zielone strzałki, aby przejść do map sąsiednich.


METAR-TAF: